Latest Weather Observations for Lockhart River

IDQ60801

Issued at 11:02 pm EST Monday 3 August 2015 (issued every 30 minutes, with the page automatically refreshed every 10 minutes)

About weather observations | Map of weather stations | Latest weather observations for QLD | Other Formats
Station Details ID: 028008 Name: LOCKHART RIVER AIRPORT Lat: -12.79 Lon: 143.30 Height: 18.5 m
Data from the previous 72 hours. | See also: Recent months at Lockhart River
Date/Time
EST
Temp
°C
App
Temp
°C
Dew
Point
Rel
Hum
%
Delta-T
°C
Wind Press
QNH
hPa
Press
MSL
hPa
Rain
since 9 am
mm
Dir
 
Spd
km/h
Gust
km/h
Spd
kts
Gust
kts
03/11:00pm 18.7 21.6 18.2 97 0.3 CALM 0 0 0 0 1016.4 - 0.2
03/10:30pm 18.9 21.9 18.4 97 0.3 CALM 0 0 0 0 1016.7 - 0.2
03/10:00pm 18.9 21.8 18.2 96 0.4 CALM 0 0 0 0 1016.7 - 0.2
03/09:30pm 18.8 21.7 18.1 96 0.4 CALM 0 0 0 0 1016.5 - 0.2
03/09:00pm 19.0 21.8 18.0 94 0.6 CALM 0 0 0 0 1016.4 1016.3 0.2
03/08:30pm 19.6 22.8 18.8 95 0.5 CALM 0 0 0 0 1016.3 - 0.2
03/08:00pm 20.0 23.2 18.8 93 0.8 CALM 0 0 0 0 1016.0 - 0.2
03/07:30pm 20.7 23.8 18.6 88 1.3 CALM 0 0 0 0 1015.7 - 0.2
03/07:00pm 22.1 24.9 18.9 82 2.0 SSE 2 7 1 4 1015.4 - 0.2
03/06:30pm 22.7 24.5 18.7 78 2.5 SSE 7 11 4 6 1015.2 - 0.2
03/06:00pm 23.7 24.3 18.6 73 3.2 SE 13 19 7 10 1015.1 1015.0 0.2
03/05:30pm 24.3 23.7 18.5 70 3.7 SE 19 26 10 14 1015.1 - 0.2
03/05:00pm 25.2 24.2 18.9 68 4.0 ESE 22 32 12 17 1014.9 - 0.2
03/04:30pm 25.8 24.3 18.5 64 4.6 SE 24 33 13 18 1014.6 - 0.2
03/04:00pm 26.2 25.3 19.1 65 4.6 ESE 22 32 12 17 1014.6 - 0.2
03/03:30pm 26.3 25.3 18.9 63 4.7 ESE 22 32 12 17 1014.6 - 0.2
03/03:00pm 26.6 26.3 19.5 65 4.6 E 20 28 11 15 1014.8 1014.7 0.2
03/02:30pm 26.4 25.9 19.0 63 4.7 E 20 30 11 16 1015.0 - 0.2
03/02:00pm 26.8 26.5 19.2 63 4.9 ESE 19 30 10 16 1015.4 - 0.2
03/01:30pm 27.1 27.2 19.9 64 4.7 ESE 19 30 10 16 1015.7 - 0.2
03/01:00pm 26.5 26.1 19.4 65 4.6 E 20 30 11 16 1016.0 - 0.2
03/12:30pm 26.3 25.7 18.9 63 4.7 E 20 32 11 17 1016.5 - 0.2
03/12:00pm 26.2 25.9 19.6 67 4.3 E 20 30 11 16 1016.9 1016.8 0.2
03/11:30am 26.5 26.5 20.1 68 4.2 ESE 20 33 11 18 1017.3 - 0.2
03/11:00am 26.1 25.5 19.7 68 4.1 SE 22 35 12 19 1017.5 - 0.2
03/10:30am 25.8 24.6 20.1 71 3.7 SE 26 37 14 20 1017.8 - 0.2
03/10:00am 25.1 24.8 19.5 71 3.6 ESE 20 33 11 18 1017.8 - 0.0
03/09:30am 24.9 24.5 19.3 71 3.6 ESE 20 35 11 19 1017.8 - 0.0
03/09:00am 24.7 24.8 20.0 75 3.0 ESE 19 32 10 17 1017.5 1017.4 0.2
03/08:30am 22.6 26.1 19.6 83 1.9 CALM 0 7 0 4 1017.2 - 0.2
03/08:00am 21.4 25.1 20.0 92 0.9 CALM 0 0 0 0 1016.9 - 0.2
03/07:30am 20.5 24.1 19.7 95 0.5 CALM 0 0 0 0 1016.7 - 0.2
03/07:00am 20.5 23.8 19.0 91 0.9 CALM 0 0 0 0 1016.4 - 0.2
03/06:30am 21.2 23.5 19.5 90 1.1 SSE 6 9 3 5 1016.2 - 0.2
03/06:00am 21.2 22.6 19.5 90 1.1 S 11 13 6 7 1015.9 1015.8 0.2
03/05:30am 21.1 23.2 19.4 90 1.1 S 7 9 4 5 1015.6 - 0.2
03/05:00am 21.3 23.3 19.2 88 1.3 S 7 11 4 6 1015.4 - 0.2
03/04:30am 22.3 23.7 19.5 84 1.8 SSE 11 20 6 11 1015.3 - 0.2
03/04:00am 22.2 23.6 19.6 85 1.7 SE 11 19 6 10 1015.4 - 0.2
03/03:30am 21.9 22.8 20.0 89 1.2 SE 15 22 8 12 1015.6 - 0.2
03/03:00am 21.1 23.5 19.7 92 0.9 SE 6 13 3 7 1015.5 1015.4 0.2
03/02:30am 22.1 24.2 19.3 84 1.8 SSE 7 17 4 9 1015.7 - 0.0
03/02:00am 21.1 23.4 18.5 85 1.6 SSW 4 15 2 8 1015.9 - 0.0
03/01:30am 20.9 23.3 20.1 95 0.5 SSE 7 17 4 9 1016.3 - 0.0
03/01:00am 19.5 21.0 18.0 91 0.9 S 7 15 4 8 1016.5 - 0.0
03/12:30am 19.5 22.4 18.3 93 0.7 CALM 0 6 0 3 1016.8 - 0.0
03/12:00am 21.6 23.2 19.2 86 1.5 SE 9 13 5 7 1017.1 1017.0 0.0
 
Date/Time
EST
Temp
°C
App
Temp
°C
Dew
Point
Rel
Hum
%
Delta-T
°C
Wind Press
QNH
hPa
Press
MSL
hPa
Rain
since 9 am
mm
Dir
 
Spd
km/h
Gust
km/h
Spd
kts
Gust
kts
02/11:30pm 22.1 23.4 19.3 84 1.8 SE 11 17 6 9 1017.1 - 0.0
02/11:00pm 22.3 23.7 19.5 84 1.8 SE 11 17 6 9 1017.2 - 0.0
02/10:30pm 22.2 23.2 19.4 84 1.8 SE 13 19 7 10 1017.3 - 0.0
02/10:00pm 19.7 22.0 18.5 93 0.7 SSW 4 7 2 4 1017.3 - 0.0
02/09:30pm 19.8 22.5 18.6 93 0.7 WSW 2 6 1 3 1017.0 - 0.0
02/09:00pm 19.9 22.9 18.4 91 0.9 CALM 0 0 0 0 1016.9 1016.8 0.0
02/08:30pm 21.1 24.2 18.7 86 1.5 CALM 0 0 0 0 1016.5 - 0.0
02/08:00pm 21.7 23.6 18.9 84 1.8 SE 7 11 4 6 1016.2 - 0.0
02/07:30pm 21.9 23.2 18.5 81 2.1 SE 9 11 5 6 1015.9 - 0.0
02/07:00pm 22.6 23.5 18.4 77 2.6 SE 11 17 6 9 1015.4 - 0.0
02/06:30pm 23.2 23.3 18.3 74 3.1 SE 15 19 8 10 1015.2 - 0.0
02/06:00pm 23.8 23.4 18.0 70 3.6 SE 17 26 9 14 1015.3 1015.2 0.0
02/05:30pm 25.0 23.3 18.2 66 4.3 SE 24 33 13 18 1015.2 - 0.0
02/05:00pm 25.3 24.0 18.2 64 4.5 SE 22 35 12 19 1015.0 - 0.0
02/04:30pm 25.4 23.3 18.1 64 4.6 SE 26 37 14 20 1014.8 - 0.0
02/04:00pm 26.2 24.4 17.8 60 5.3 ESE 24 32 13 17 1014.8 - 0.0
02/03:30pm 25.7 23.6 18.1 63 4.8 SE 26 35 14 19 1015.0 - 0.0
02/03:00pm 26.4 23.8 17.7 58 5.5 ESE 28 39 15 21 1015.2 1015.1 0.0
02/02:30pm 26.6 24.9 19.0 63 4.9 ESE 26 37 14 20 1015.4 - 0.0
02/02:00pm 26.7 25.2 18.6 61 5.2 ESE 24 35 13 19 1015.8 - 0.0
02/01:30pm 27.2 26.3 19.8 64 4.8 ESE 24 33 13 18 1016.2 - 0.0
02/01:00pm 26.4 24.6 18.8 63 4.9 ESE 26 41 14 22 1016.4 - 0.0
02/12:30pm 25.9 23.7 18.8 65 4.5 SE 28 35 15 19 1017.1 - 0.0
02/12:00pm 25.5 23.6 17.7 62 4.9 SE 24 33 13 18 1017.6 1017.5 0.0
02/11:30am 25.8 24.5 18.2 63 4.8 ESE 22 35 12 19 1017.8 - 0.0
02/11:00am 25.5 23.2 17.7 62 4.9 ESE 26 39 14 21 1018.0 - 0.0
02/10:30am 26.0 24.2 17.9 61 5.1 ESE 24 35 13 19 1018.1 - 0.0
02/10:00am 25.7 22.8 17.1 59 5.3 ESE 28 43 15 23 1018.2 - 0.0
02/09:30am 25.5 23.3 17.9 63 4.8 ESE 26 37 14 20 1018.2 - 0.0
02/09:00am 24.9 23.7 18.3 66 4.2 ESE 22 32 12 17 1018.1 1018.0 1.4
02/08:30am 24.3 23.7 18.5 70 3.7 ESE 19 28 10 15 1017.7 - 1.4
02/08:00am 22.8 23.4 19.4 81 2.2 ESE 15 22 8 12 1017.5 - 1.4
02/07:30am 21.7 23.1 20.3 92 0.9 SE 13 22 7 12 1017.2 - 1.4
02/07:00am 21.5 22.9 20.3 93 0.8 ESE 13 19 7 10 1016.8 - 1.4
02/06:30am 22.1 22.9 19.1 83 1.9 SE 13 26 7 14 1016.5 - 0.8
02/06:00am 21.8 22.6 19.0 84 1.8 SE 13 17 7 9 1016.2 1016.1 0.8
02/05:30am 22.3 22.7 19.1 82 2.0 SE 15 22 8 12 1016.0 - 0.8
02/05:00am 21.6 23.9 18.6 83 1.9 SSE 4 7 2 4 1015.7 - 0.8
02/04:30am 22.1 21.8 18.3 79 2.4 SSE 17 26 9 14 1015.4 - 0.8
02/04:00am 22.3 22.2 18.7 80 2.3 SE 17 26 9 14 1015.6 - 0.8
02/03:30am 22.1 22.5 18.1 78 2.5 SE 13 19 7 10 1015.4 - 0.8
02/03:00am 22.5 21.0 17.8 75 2.9 SE 22 32 12 17 1015.3 1015.2 0.8
02/02:30am 22.2 21.2 18.0 77 2.6 SE 20 32 11 17 1015.4 - 0.8
02/02:00am 22.5 21.6 17.8 75 2.9 ESE 19 26 10 14 1015.8 - 0.8
02/01:30am 22.5 21.2 18.1 76 2.7 SE 22 33 12 18 1015.9 - 0.8
02/01:00am 22.6 21.8 18.4 77 2.6 SE 20 33 11 18 1016.2 - 0.8
02/12:30am 22.5 22.7 19.3 82 2.0 SE 17 22 9 12 1016.2 - 0.8
02/12:00am 23.0 23.1 19.2 79 2.4 SE 17 24 9 13 1016.3 1016.2 0.8
 
Date/Time
EST
Temp
°C
App
Temp
°C
Dew
Point
Rel
Hum
%
Delta-T
°C
Wind Press
QNH
hPa
Press
MSL
hPa
Rain
since 9 am
mm
Dir
 
Spd
km/h
Gust
km/h
Spd
kts
Gust
kts
01/11:30pm 23.3 22.0 19.0 77 2.7 SE 24 37 13 20 1016.5 - 0.8
01/11:00pm 23.1 22.5 19.7 81 2.2 SE 22 32 12 17 1016.4 - 0.8
01/10:30pm 23.2 21.5 18.9 77 2.7 SE 26 37 14 20 1016.5 - 0.8
01/10:00pm 22.6 23.0 19.8 84 1.8 SE 17 28 9 15 1016.4 - 0.8
01/09:30pm 21.9 23.2 20.2 90 1.1 SE 13 20 7 11 1016.5 - 0.8
01/09:00pm 21.8 22.0 20.1 90 1.1 SSE 19 26 10 14 1016.0 1015.9 0.8
01/08:30pm 22.2 23.3 20.5 90 1.1 SSE 15 20 8 11 1015.6 - 0.8
01/08:00pm 21.9 23.3 20.4 91 1.0 SE 13 19 7 10 1015.3 - 0.8
01/07:30pm 21.6 23.5 20.6 94 0.6 ESE 11 17 6 9 1015.0 - 0.8
01/07:00pm 21.6 23.1 20.6 94 0.6 SE 13 19 7 10 1015.1 - 0.8
01/06:30pm 22.8 22.1 19.4 81 2.2 SE 22 37 12 20 1014.9 - 0.6
01/06:00pm 22.8 23.7 20.0 84 1.8 SE 15 28 8 15 1014.6 1014.5 0.6
01/05:30pm 23.1 22.4 19.5 80 2.3 SE 22 30 12 16 1014.5 - 0.6
01/05:00pm 24.4 23.6 19.2 73 3.3 SE 22 33 12 18 1014.2 - 0.4
01/04:30pm 24.2 23.4 19.3 74 3.1 SE 22 37 12 20 1014.1 - 0.4
01/04:00pm 25.1 23.8 19.9 73 3.4 SE 26 39 14 21 1014.0 - 0.4
01/03:30pm 24.6 23.5 19.4 73 3.3 ESE 24 37 13 20 1014.0 - 0.4
01/03:00pm 24.1 23.0 19.4 75 3.0 ESE 24 39 13 21 1014.1 1013.9 0.4
01/02:30pm 23.9 25.0 20.4 81 2.3 ESE 15 22 8 12 1014.3 - 0.4
01/02:00pm 23.9 22.9 19.6 77 2.8 ESE 24 39 13 21 1014.7 - 0.4
01/01:30pm 24.0 23.9 20.7 82 2.2 ESE 22 32 12 17 1015.0 - 0.4
01/01:00pm 23.5 22.9 19.8 80 2.4 ESE 22 35 12 19 1015.4 - 0.2
01/12:30pm 24.0 22.1 18.6 72 3.4 ESE 26 39 14 21 1015.9 - 0.2
01/12:00pm 24.8 23.3 18.5 68 4.0 ESE 24 33 13 18 1016.2 1016.0 0.0
01/11:30am 24.6 22.7 18.5 69 3.9 ESE 26 39 14 21 1016.6 - 0.0
01/11:00am 24.4 23.7 19.5 74 3.1 SE 22 30 12 16 1016.8 - 0.0
01/10:30am 24.6 24.0 18.8 70 3.7 ESE 20 32 11 17 1016.8 - 0.0
01/10:00am 24.4 23.0 19.7 75 3.0 ESE 26 37 14 20 1017.0 - 0.0
01/09:30am 24.1 22.9 18.5 71 3.5 ESE 22 41 12 22 1016.9 - 0.0
01/09:00am 23.0 22.9 19.6 81 2.2 SE 19 24 10 13 1016.7 1016.6 3.0
01/08:30am 22.5 23.2 20.4 88 1.4 ESE 17 24 9 13 1016.5 - 3.0
01/08:00am 21.5 22.2 20.5 94 0.6 SE 17 24 9 13 1016.1 - 3.0
01/07:30am 21.3 21.5 20.1 93 0.8 SE 19 30 10 16 1015.7 - 3.0
01/07:00am 21.3 24.0 20.6 96 0.5 ESE 7 9 4 5 1015.3 - 2.0
01/06:30am 21.1 23.3 20.4 96 0.5 ESE 9 13 5 7 1015.3 - 2.0
01/06:15am 21.0 22.0 20.3 96 0.5 ESE 15 22 8 12 1015.1 - 2.0
01/06:00am 20.9 21.1 20.1 95 0.5 ESE 19 33 10 18 1015.1 1015.0 2.0
01/05:30am 21.4 22.7 20.2 93 0.8 SE 13 17 7 9 1014.8 - 0.2
01/05:24am 21.5 22.4 20.1 92 0.9 SE 15 20 8 11 1014.9 - 0.2
01/05:00am 21.5 22.4 20.1 92 0.9 E 15 32 8 17 1015.1 - 0.2
01/04:50am 21.6 22.6 20.2 92 0.9 ESE 15 28 8 15 1015.0 - 0.2
01/04:30am 21.8 22.1 20.3 91 1.0 SE 19 26 10 14 1014.9 - 0.2
01/04:01am 21.9 23.2 20.2 90 1.1 ESE 13 20 7 11 1014.7 - 0.2
01/04:00am 21.9 23.2 20.2 90 1.1 ESE 13 20 7 11 1014.7 - 0.2
01/03:30am 21.4 22.6 20.0 92 0.9 SE 13 19 7 10 1014.9 - 0.2
01/03:00am 21.0 23.0 18.8 87 1.4 S 6 7 3 4 1015.0 1014.9 0.0
01/02:30am 21.2 22.9 18.6 85 1.6 SSE 7 9 4 5 1015.3 - 0.0
01/02:00am 21.8 21.9 18.4 81 2.1 SE 15 22 8 12 1015.7 - 0.0
01/01:30am 22.3 22.6 18.7 80 2.3 SE 15 37 8 20 1015.9 - 0.0
01/01:00am 22.0 22.6 17.6 76 2.7 SE 11 15 6 8 1016.1 - 0.0
01/12:30am 22.1 22.1 17.2 74 3.0 SE 13 19 7 10 1016.3 - 0.0
01/12:00am 22.5 21.2 17.2 72 3.3 SE 20 28 11 15 1016.4 1016.3 0.0
 
Date/Time
EST
Temp
°C
App
Temp
°C
Dew
Point
Rel
Hum
%
Delta-T
°C
Wind Press
QNH
hPa
Press
MSL
hPa
Rain
since 9 am
mm
Dir
 
Spd
km/h
Gust
km/h
Spd
kts
Gust
kts
31/11:30pm 22.4 22.0 17.1 72 3.3 SE 15 24 8 13 1016.6 - 0.0

Other Formats:

Comma delimited format used in spreadsheet applications
http://www.bom.gov.au/fwo/IDQ60801/IDQ60801.94186.axf

JavaScript Object Notation format (JSON) in row-major order
http://www.bom.gov.au/fwo/IDQ60801/IDQ60801.94186.json